createdAt,value
2019-02-14T00:01:46.456Z,100020.11
2019-02-14T00:04:18.503Z,100020.50
2019-02-14T00:06:50.524Z,100016.73
2019-02-14T00:09:22.532Z,100013.75
2019-02-14T00:11:54.557Z,100008.61
2019-02-14T00:14:26.564Z,100011.59
2019-02-14T00:16:58.568Z,100010.09
2019-02-14T00:19:30.682Z,100003.98
2019-02-14T00:22:03.345Z,100002.39
2019-02-14T00:24:39.050Z,100000.74
2019-02-14T00:27:12.441Z,100004.98
2019-02-14T00:30:04.834Z,100002.53
2019-02-14T00:32:37.572Z,100004.47
2019-02-14T00:35:11.856Z,100000.56
2019-02-14T00:37:45.880Z,100000.70
2019-02-14T00:40:19.041Z,99997.89
2019-02-14T00:42:52.463Z,100002.16
2019-02-14T00:45:24.805Z,100003.32
2019-02-14T00:47:58.142Z,100003.28
2019-02-14T00:50:31.623Z,100000.51
2019-02-14T00:53:04.763Z,100005.50
2019-02-14T00:55:38.652Z,99999.25
2019-02-14T00:58:13.835Z,100007.25
2019-02-14T01:00:47.573Z,100005.05
2019-02-14T01:03:21.112Z,100000.70
2019-02-14T01:05:54.427Z,100001.14
2019-02-14T01:08:28.235Z,99995.08
2019-02-14T01:11:01.416Z,100001.19
2019-02-14T01:13:35.390Z,99994.54
2019-02-14T01:16:08.225Z,99993.83
2019-02-14T01:21:35.222Z,100001.06
2019-02-14T01:24:07.524Z,99997.91
2019-02-14T01:26:59.918Z,100005.23
2019-02-14T01:29:32.088Z,99998.37
2019-02-14T01:32:04.057Z,99995.09
2019-02-14T01:34:36.046Z,99997.75
2019-02-14T01:37:08.009Z,99992.72
2019-02-14T01:39:40.022Z,99983.02
2019-02-14T01:45:04.577Z,99985.59
2019-02-14T01:50:21.904Z,99966.14
2019-02-14T01:52:53.850Z,99975.22
2019-02-14T01:55:25.841Z,99982.45
2019-02-14T01:57:57.819Z,99983.36
2019-02-14T02:00:49.286Z,99986.98
2019-02-14T02:03:21.269Z,99987.48
2019-02-14T02:06:12.830Z,99984.08
2019-02-14T02:08:44.883Z,99974.42
2019-02-14T02:11:16.901Z,99975.53
2019-02-14T02:13:48.893Z,99975.94
2019-02-14T02:16:20.867Z,99971.37
2019-02-14T02:18:52.855Z,99963.37
2019-02-14T02:21:44.404Z,99970.25
2019-02-14T02:24:16.366Z,99967.83
2019-02-14T02:27:07.902Z,99964.92
2019-02-14T02:29:39.859Z,99961.50
2019-02-14T02:32:11.866Z,99955.45
2019-02-14T02:34:43.825Z,99956.94
2019-02-14T02:37:15.832Z,99953.03
2019-02-14T02:39:47.793Z,99959.27
2019-02-14T02:42:39.437Z,99963.31
2019-02-14T02:45:52.457Z,99961.73
2019-02-14T02:48:24.448Z,99964.48
2019-02-14T02:50:56.437Z,99962.32
2019-02-14T02:53:28.411Z,99964.61
2019-02-14T02:56:00.400Z,99964.42
2019-02-14T02:58:32.537Z,99958.47
2019-02-14T03:01:04.503Z,99965.27
2019-02-14T03:03:56.061Z,99966.31
2019-02-14T03:06:28.037Z,99968.77
2019-02-14T03:09:00.046Z,99974.64
2019-02-14T03:11:51.488Z,99980.08
2019-02-14T03:14:23.468Z,99974.34
2019-02-14T03:17:14.994Z,99974.71
2019-02-14T03:19:46.974Z,99978.39
2019-02-14T03:22:18.966Z,99981.61
2019-02-14T03:24:50.948Z,99980.63
2019-02-14T03:27:23.001Z,99973.85
2019-02-14T03:29:55.038Z,99977.89
2019-02-14T03:32:27.032Z,99974.34
2019-02-14T03:34:59.037Z,99976.01
2019-02-14T03:37:31.054Z,99976.58
2019-02-14T03:40:43.910Z,99976.77
2019-02-14T03:43:15.879Z,99981.25
2019-02-14T03:45:47.862Z,99988.48
2019-02-14T03:48:19.839Z,99992.96
2019-02-14T03:50:51.845Z,99983.99
2019-02-14T03:53:24.145Z,99989.83
2019-02-14T03:55:56.203Z,99990.86
2019-02-14T03:58:28.179Z,99987.22
2019-02-14T04:01:00.206Z,100000.50
2019-02-14T04:03:32.228Z,100003.59
2019-02-14T04:06:04.231Z,100004.75
2019-02-14T04:08:36.324Z,100003.05
2019-02-14T04:11:08.375Z,99997.53
2019-02-14T04:13:40.341Z,99995.96
2019-02-14T04:16:12.380Z,100002.52
2019-02-14T04:18:44.358Z,100000.54
2019-02-14T04:21:16.358Z,100000.19
2019-02-14T04:23:48.350Z,100004.72
2019-02-14T04:26:20.335Z,100002.56
2019-02-14T04:28:52.314Z,100009.33
2019-02-14T04:31:24.367Z,100010.41
2019-02-14T04:33:56.334Z,100008.03
2019-02-14T04:36:35.839Z,100012.83
2019-02-14T04:41:55.793Z,100002.34
2019-02-14T04:44:27.815Z,100003.92
2019-02-14T04:46:59.819Z,100001.62
2019-02-14T04:49:31.811Z,100004.68
2019-02-14T04:52:03.785Z,100008.67
2019-02-14T04:54:35.760Z,100010.96
2019-02-14T04:57:07.754Z,100013.56
2019-02-14T04:59:39.700Z,100011.14
2019-02-14T05:02:11.711Z,100009.97
2019-02-14T05:04:43.720Z,100006.92
2019-02-14T05:07:35.288Z,100008.45
2019-02-14T05:13:20.308Z,100007.80
2019-02-14T05:19:05.267Z,100005.84
2019-02-14T05:21:37.250Z,100012.12
2019-02-14T05:24:09.251Z,100011.58
2019-02-14T05:26:41.209Z,100007.94
2019-02-14T05:29:13.205Z,100011.89
2019-02-14T05:31:45.193Z,100011.89
2019-02-14T05:34:17.214Z,100008.70
2019-02-14T05:36:53.682Z,100009.16
2019-02-14T05:39:23.105Z,100007.86
2019-02-14T05:41:55.086Z,100018.23
2019-02-14T05:44:46.566Z,100023.39
2019-02-14T05:47:18.564Z,100024.45
2019-02-14T05:49:50.564Z,100019.25
2019-02-14T05:52:22.568Z,100025.08
2019-02-14T05:54:54.565Z,100028.09
2019-02-14T05:57:27.399Z,100028.80
2019-02-14T06:00:20.021Z,100029.53
2019-02-14T06:03:11.550Z,100032.59
2019-02-14T06:05:43.530Z,100029.80
2019-02-14T06:08:15.544Z,100037.51
2019-02-14T06:10:47.570Z,100042.45
2019-02-14T06:13:19.578Z,100038.19
2019-02-14T06:15:51.594Z,100036.94
2019-02-14T06:18:23.609Z,100038.59
2019-02-14T06:20:55.622Z,100050.34
2019-02-14T06:23:27.611Z,100049.94
2019-02-14T06:25:59.713Z,100045.48
2019-02-14T06:28:31.725Z,100046.11
2019-02-14T06:31:03.735Z,100050.91
2019-02-14T06:33:35.696Z,100055.37
2019-02-14T06:36:07.728Z,100063.59
2019-02-14T06:38:39.692Z,100063.81
2019-02-14T06:41:11.673Z,100058.42
2019-02-14T06:43:43.660Z,100066.56
2019-02-14T06:46:15.646Z,100066.16
2019-02-14T06:48:47.622Z,100064.58
2019-02-14T06:51:19.633Z,100073.06
2019-02-14T06:53:51.622Z,100070.63
2019-02-14T06:56:23.624Z,100066.78
2019-02-14T06:58:55.601Z,100066.42
2019-02-14T07:01:27.700Z,100064.84
2019-02-14T07:03:59.671Z,100068.42
2019-02-14T07:06:31.664Z,100068.20
2019-02-14T07:09:44.453Z,100073.25
2019-02-14T07:12:36.010Z,100073.67
2019-02-14T07:15:09.041Z,100075.52
2019-02-14T07:17:41.022Z,100078.58
2019-02-14T07:20:13.409Z,100077.12
2019-02-14T07:22:45.406Z,100081.48
2019-02-14T07:25:17.619Z,100079.97
2019-02-14T07:27:49.649Z,100076.61
2019-02-14T07:30:21.770Z,100079.80
2019-02-14T07:32:53.779Z,100077.87
2019-02-14T07:35:25.736Z,100082.45
2019-02-14T07:37:58.232Z,100076.17
2019-02-14T07:40:30.215Z,100084.45
2019-02-14T07:43:02.229Z,100086.58
2019-02-14T07:45:34.238Z,100083.74
2019-02-14T07:48:06.270Z,100095.38
2019-02-14T07:50:38.247Z,100089.45
2019-02-14T07:53:10.246Z,100090.41
2019-02-14T07:55:42.254Z,100096.92
2019-02-14T07:58:14.236Z,100102.17
2019-02-14T08:00:46.214Z,100106.47
2019-02-14T08:03:18.197Z,100099.53
2019-02-14T08:05:50.184Z,100094.58
2019-02-14T08:08:22.216Z,100100.56
2019-02-14T08:10:54.168Z,100098.14
2019-02-14T08:13:26.179Z,100094.14
2019-02-14T08:15:58.159Z,100092.13
2019-02-14T08:18:30.464Z,100085.08
2019-02-14T08:21:02.477Z,100080.11
2019-02-14T08:23:34.472Z,100084.14
2019-02-14T08:26:10.901Z,100079.98
2019-02-14T08:28:40.389Z,100076.84
2019-02-14T08:31:12.386Z,100069.36
2019-02-14T08:33:44.365Z,100069.22
2019-02-14T08:36:16.393Z,100069.59
2019-02-14T08:38:48.369Z,100073.89
2019-02-14T08:41:20.354Z,100073.36
2019-02-14T08:43:52.308Z,100075.89
2019-02-14T08:46:24.277Z,100079.95
2019-02-14T08:48:56.264Z,100079.44
2019-02-14T08:51:28.287Z,100081.81
2019-02-14T08:54:00.263Z,100079.82
2019-02-14T08:56:32.250Z,100083.08
2019-02-14T08:59:04.224Z,100082.94
2019-02-14T09:01:36.212Z,100080.50
2019-02-14T09:04:08.177Z,100083.60
2019-02-14T09:06:40.212Z,100083.60
2019-02-14T09:09:12.238Z,100078.71
2019-02-14T09:11:44.225Z,100079.03
2019-02-14T09:14:16.245Z,100073.12
2019-02-14T09:16:48.567Z,100071.36
2019-02-14T09:19:20.584Z,100075.00
2019-02-14T09:21:52.611Z,100062.34
2019-02-14T09:24:24.558Z,100059.83
2019-02-14T09:26:56.566Z,100064.91
2019-02-14T09:29:28.555Z,100065.98
2019-02-14T09:32:00.548Z,100058.75
2019-02-14T09:34:32.529Z,100071.75
2019-02-14T09:37:04.635Z,100077.72
2019-02-14T09:39:40.891Z,100077.16
2019-02-14T09:42:10.518Z,100071.37
2019-02-14T09:44:42.512Z,100065.02
2019-02-14T09:47:14.528Z,100058.13
2019-02-14T09:49:46.505Z,100068.73
2019-02-14T09:52:18.519Z,100061.95
2019-02-14T09:54:50.514Z,100064.36
2019-02-14T09:57:22.493Z,100064.90
2019-02-14T09:59:54.459Z,100064.09
2019-02-14T10:02:26.470Z,100053.05
2019-02-14T10:04:58.433Z,100048.75
2019-02-14T10:07:30.429Z,100054.45
2019-02-14T10:10:02.759Z,100050.77
2019-02-14T10:12:34.781Z,100043.16
2019-02-14T10:15:07.372Z,100040.17
2019-02-14T10:17:39.377Z,100039.12
2019-02-14T10:20:13.126Z,100035.95
2019-02-14T10:22:45.142Z,100036.62
2019-02-14T10:25:17.164Z,100028.00
2019-02-14T10:27:49.166Z,100022.70
2019-02-14T10:30:21.201Z,100023.48
2019-02-14T10:32:53.210Z,100019.02
2019-02-14T10:35:25.204Z,100020.11
2019-02-14T10:37:57.230Z,100022.14
2019-02-14T10:40:29.226Z,100020.42
2019-02-14T10:43:01.225Z,100018.69
2019-02-14T10:45:33.257Z,100016.27
2019-02-14T10:48:05.291Z,100015.84
2019-02-14T10:50:37.279Z,100012.42
2019-02-14T10:53:09.288Z,100016.87
2019-02-14T10:55:41.240Z,100006.20
2019-02-14T10:58:13.268Z,100009.00
2019-02-14T11:00:45.411Z,100009.37
2019-02-14T11:03:17.449Z,100010.80
2019-02-14T11:05:49.412Z,100003.83
2019-02-14T11:08:21.439Z,99997.20
2019-02-14T11:10:53.450Z,100005.39
2019-02-14T11:13:25.451Z,99997.34
2019-02-14T11:15:57.460Z,99995.30
2019-02-14T11:18:29.456Z,100002.34
2019-02-14T11:21:01.477Z,99990.68
2019-02-14T11:23:33.505Z,99991.38
2019-02-14T11:26:05.484Z,99991.25
2019-02-14T11:28:37.508Z,99970.55
2019-02-14T11:31:09.511Z,99970.55
2019-02-14T11:33:41.526Z,99982.67
2019-02-14T11:36:13.552Z,99975.24
2019-02-14T11:38:45.568Z,99974.21
2019-02-14T11:41:17.555Z,99971.41
2019-02-14T11:43:49.569Z,99968.58
2019-02-14T11:46:21.590Z,99960.57
2019-02-14T11:48:53.612Z,99950.48
2019-02-14T11:51:25.620Z,99950.48
2019-02-14T11:53:57.621Z,99958.93
2019-02-14T11:56:29.651Z,99952.56
2019-02-14T11:59:01.629Z,99944.00
2019-02-14T12:01:33.675Z,99943.11
2019-02-14T12:04:05.696Z,99944.77
2019-02-14T12:06:37.837Z,99946.83
2019-02-14T12:09:09.902Z,99940.48
2019-02-14T12:11:41.886Z,99931.06
2019-02-14T12:14:13.881Z,99926.88
2019-02-14T12:16:45.910Z,99924.59
2019-02-14T12:19:17.883Z,99920.63
2019-02-14T12:21:49.897Z,99919.39
2019-02-14T12:24:21.890Z,99919.55
2019-02-14T12:26:53.903Z,99906.70
2019-02-14T12:29:25.914Z,99904.39
2019-02-14T12:31:57.920Z,99910.47
2019-02-14T12:34:29.912Z,99894.59
2019-02-14T12:37:02.040Z,99892.59
2019-02-14T12:39:34.045Z,99884.16
2019-02-14T12:42:06.074Z,99881.88
2019-02-14T12:44:38.072Z,99880.21
2019-02-14T12:47:10.105Z,99873.57
2019-02-14T12:49:42.080Z,99881.14
2019-02-14T12:52:14.161Z,99878.32
2019-02-14T12:54:46.113Z,99873.46
2019-02-14T12:57:18.111Z,99869.25
2019-02-14T12:59:50.075Z,99864.87
2019-02-14T13:02:22.200Z,99867.81
2019-02-14T13:04:54.174Z,99870.87
2019-02-14T13:07:26.238Z,99864.11
2019-02-14T13:09:58.257Z,99865.78
2019-02-14T13:12:30.268Z,99864.20
2019-02-14T13:15:02.310Z,99870.36
2019-02-14T13:17:34.348Z,99865.22
2019-02-14T13:20:06.802Z,99854.75
2019-02-14T13:22:38.893Z,99853.47
2019-02-14T13:25:11.611Z,99847.42
2019-02-14T13:27:43.649Z,99847.25
2019-02-14T13:30:17.811Z,99845.35
2019-02-14T13:32:49.843Z,99835.36
2019-02-14T13:35:21.845Z,99834.31
2019-02-14T13:37:53.870Z,99834.17
2019-02-14T13:40:25.844Z,99834.37
2019-02-14T13:42:57.880Z,99836.81
2019-02-14T13:45:29.858Z,99836.33
2019-02-14T13:48:01.925Z,99839.38
2019-02-14T13:50:34.036Z,99831.99
2019-02-14T13:53:06.091Z,99835.47
2019-02-14T13:55:38.125Z,99830.58
2019-02-14T13:58:10.094Z,99823.69
2019-02-14T14:00:42.098Z,99815.39
2019-02-14T14:03:14.052Z,99814.10
2019-02-14T14:05:46.071Z,99809.48
2019-02-14T14:08:18.050Z,99810.49
2019-02-14T14:10:50.112Z,99802.44
2019-02-14T14:13:22.128Z,99797.06
2019-02-14T14:15:54.089Z,99793.61
2019-02-14T14:18:26.089Z,99791.27
2019-02-14T14:21:01.006Z,99787.17
2019-02-14T14:23:32.993Z,99778.94
2019-02-14T14:26:05.019Z,99783.33
2019-02-14T14:28:37.038Z,99780.80
2019-02-14T14:31:09.064Z,99778.55
2019-02-14T14:33:41.077Z,99773.57
2019-02-14T14:36:13.100Z,99782.53
2019-02-14T14:38:45.103Z,99782.15
2019-02-14T14:41:17.151Z,99778.70
2019-02-14T14:44:07.397Z,99771.16
2019-02-14T14:47:05.168Z,99771.00
2019-02-14T14:49:37.175Z,99773.50
2019-02-14T14:52:09.192Z,99767.50
2019-02-14T14:54:41.166Z,99763.31
2019-02-14T14:57:13.178Z,99774.85
2019-02-14T14:59:45.174Z,99775.39
2019-02-14T15:02:17.181Z,99775.09
2019-02-14T15:04:49.168Z,99770.45
2019-02-14T15:07:21.215Z,99779.42
2019-02-14T15:09:57.576Z,99775.34
2019-02-14T15:12:27.179Z,99775.73
2019-02-14T15:14:59.203Z,99778.70
2019-02-14T15:17:33.179Z,99782.28
2019-02-14T15:20:05.423Z,99790.97
2019-02-14T15:22:37.466Z,99782.88
2019-02-14T15:25:09.466Z,99783.19
2019-02-14T15:27:41.470Z,99788.06
2019-02-14T15:30:13.473Z,99785.00
2019-02-14T15:32:45.467Z,99779.13
2019-02-14T15:35:17.459Z,99787.41
2019-02-14T15:37:49.485Z,99795.36
2019-02-14T15:40:21.500Z,99790.50
2019-02-14T15:42:53.503Z,99787.81
2019-02-14T15:45:25.556Z,99794.19
2019-02-14T15:47:57.684Z,99794.06
2019-02-14T15:50:30.385Z,99797.61
2019-02-14T15:53:04.235Z,99794.66
2019-02-14T15:55:36.214Z,99788.86
2019-02-14T15:58:09.259Z,99787.30
2019-02-14T16:00:41.518Z,99787.36
2019-02-14T16:03:15.321Z,99784.36
2019-02-14T16:05:47.530Z,99783.79
2019-02-14T16:08:21.802Z,99788.56
2019-02-14T16:10:55.723Z,99791.67
2019-02-14T16:13:29.130Z,99791.81
2019-02-14T16:16:01.439Z,99800.28
2019-02-14T16:18:33.488Z,99807.45
2019-02-14T16:21:06.135Z,99797.57
2019-02-14T16:23:39.491Z,99807.09
2019-02-14T16:26:12.957Z,99807.09
2019-02-14T16:28:45.486Z,99802.10
2019-02-14T16:31:17.496Z,99802.10
2019-02-14T16:33:49.567Z,99802.61
2019-02-14T16:36:22.841Z,99802.19
2019-02-14T16:38:56.483Z,99796.83
2019-02-14T16:41:29.331Z,99810.28
2019-02-14T16:44:01.356Z,99811.06
2019-02-14T16:46:33.409Z,99809.63
2019-02-14T16:49:05.456Z,99812.63
2019-02-14T16:51:37.463Z,99816.82
2019-02-14T16:54:09.546Z,99814.93
2019-02-14T16:56:41.597Z,99810.17
2019-02-14T16:59:13.597Z,99812.77
2019-02-14T17:01:45.640Z,99814.30
2019-02-14T17:04:18.358Z,99816.13
2019-02-14T17:06:50.442Z,99817.12
2019-02-14T17:09:22.409Z,99819.45
2019-02-14T17:11:54.441Z,99820.98
2019-02-14T17:14:28.235Z,99825.55
2019-02-14T17:17:00.276Z,99824.72
2019-02-14T17:19:32.328Z,99831.73
2019-02-14T17:22:06.333Z,99841.48
2019-02-14T17:24:38.354Z,99837.32
2019-02-14T17:27:10.475Z,99836.34
2019-02-14T17:29:42.583Z,99845.88
2019-02-14T17:32:14.604Z,99845.44
2019-02-14T17:34:46.624Z,99848.45
2019-02-14T17:37:18.689Z,99857.78
2019-02-14T17:39:50.850Z,99857.89
2019-02-14T17:42:23.062Z,99856.11
2019-02-14T17:44:55.062Z,99858.19
2019-02-14T17:47:27.205Z,99854.25
2019-02-14T17:50:02.989Z,99854.91
2019-02-14T17:52:35.051Z,99860.31
2019-02-14T17:55:07.423Z,99866.00
2019-02-14T17:57:39.522Z,99864.59
2019-02-14T18:00:11.702Z,99873.61
2019-02-14T18:02:43.770Z,99873.70
2019-02-14T18:05:15.831Z,99875.19
2019-02-14T18:07:47.841Z,99877.29
2019-02-14T18:10:20.012Z,99880.42
2019-02-14T18:12:53.950Z,99884.27
2019-02-14T18:15:26.004Z,99886.38
2019-02-14T18:17:58.026Z,99890.28
2019-02-14T18:20:30.141Z,99890.83
2019-02-14T18:23:02.199Z,99888.02
2019-02-14T18:25:34.204Z,99893.82
2019-02-14T18:28:06.331Z,99889.86
2019-02-14T18:30:39.473Z,99890.39
2019-02-14T18:33:11.537Z,99901.20
2019-02-14T18:35:43.732Z,99899.91
2019-02-14T18:38:15.924Z,99896.61
2019-02-14T18:40:47.985Z,99903.50
2019-02-14T18:43:20.009Z,99897.23
2019-02-14T18:45:52.042Z,99894.37
2019-02-14T18:48:24.242Z,99889.31
2019-02-14T18:50:56.371Z,99893.72
2019-02-14T18:53:28.524Z,99888.67
2019-02-14T18:56:00.604Z,99889.95
2019-02-14T18:58:32.652Z,99892.91
2019-02-14T19:01:04.788Z,99889.50
2019-02-14T19:03:36.866Z,99883.18
2019-02-14T19:06:08.998Z,99884.14
2019-02-14T19:08:40.972Z,99894.98
2019-02-14T19:11:15.143Z,99897.54
2019-02-14T19:13:47.097Z,99885.11
2019-02-14T19:16:19.157Z,99888.38
2019-02-14T19:18:51.287Z,99883.48
2019-02-14T19:21:23.357Z,99885.48
2019-02-14T19:23:55.468Z,99879.00
2019-02-14T19:26:27.511Z,99879.37
2019-02-14T19:28:59.573Z,99881.91
2019-02-14T19:31:31.607Z,99881.19
2019-02-14T19:34:03.664Z,99888.95
2019-02-14T19:36:35.815Z,99891.13
2019-02-14T19:39:09.264Z,99886.63
2019-02-14T19:41:41.324Z,99879.23
2019-02-14T19:44:13.349Z,99870.58
2019-02-14T19:46:49.602Z,99872.72
2019-02-14T19:49:21.357Z,99872.93
2019-02-14T19:51:53.437Z,99868.05
2019-02-14T19:54:25.669Z,99864.63
2019-02-14T19:56:57.826Z,99859.20
2019-02-14T19:59:30.309Z,99859.72
2019-02-14T20:02:02.406Z,99857.39
2019-02-14T20:04:34.499Z,99855.55
2019-02-14T20:07:06.737Z,99863.13
2019-02-14T20:09:41.527Z,99862.03
2019-02-14T20:12:12.954Z,99852.84
2019-02-14T20:14:45.039Z,99853.56
2019-02-14T20:17:17.089Z,99853.70
2019-02-14T20:19:49.192Z,99851.01
2019-02-14T20:22:21.234Z,99857.48
2019-02-14T20:24:53.322Z,99860.05
2019-02-14T20:27:25.361Z,99859.31
2019-02-14T20:29:57.524Z,99862.20
2019-02-14T20:32:29.736Z,99860.94
2019-02-14T20:35:02.175Z,99855.70
2019-02-14T20:37:34.404Z,99857.69
2019-02-14T20:40:06.805Z,99853.87
2019-02-14T20:42:38.935Z,99859.48
2019-02-14T20:45:11.361Z,99858.91
2019-02-14T20:47:43.429Z,99860.50
2019-02-14T20:50:15.613Z,99861.18
2019-02-14T20:52:47.643Z,99858.81
2019-02-14T20:55:19.832Z,99866.59
2019-02-14T20:57:51.842Z,99864.23
2019-02-14T21:00:28.046Z,99870.91
2019-02-14T21:03:00.064Z,99869.11
2019-02-14T21:05:32.259Z,99860.97
2019-02-14T21:08:06.367Z,99867.80
2019-02-14T21:10:38.431Z,99868.38
2019-02-14T21:13:10.466Z,99870.75
2019-02-14T21:15:42.526Z,99870.38
2019-02-14T21:18:15.664Z,99870.22
2019-02-14T21:20:47.728Z,99866.44
2019-02-14T21:23:19.921Z,99867.54
2019-02-14T21:25:51.951Z,99870.96
2019-02-14T21:28:24.275Z,99877.48
2019-02-14T21:30:56.283Z,99874.06
2019-02-14T21:33:28.337Z,99882.20
2019-02-14T21:36:00.660Z,99883.45
2019-02-14T21:38:32.705Z,99882.92
2019-02-14T21:41:04.791Z,99882.73
2019-02-14T21:43:37.067Z,99877.52
2019-02-14T21:46:09.220Z,99882.20
2019-02-14T21:48:41.220Z,99883.30
2019-02-14T21:51:13.248Z,99885.81
2019-02-14T21:53:45.458Z,99881.87
2019-02-14T21:56:17.614Z,99883.66
2019-02-14T21:58:49.579Z,99889.44
2019-02-14T22:01:24.284Z,99889.47
2019-02-14T22:03:56.341Z,99887.12
2019-02-14T22:06:28.504Z,99882.43
2019-02-14T22:09:00.545Z,99886.39
2019-02-14T22:11:34.504Z,99879.70
2019-02-14T22:14:06.672Z,99881.14
2019-02-14T22:16:38.777Z,99890.34
2019-02-14T22:19:10.753Z,99881.87
2019-02-14T22:21:42.759Z,99880.77
2019-02-14T22:24:14.763Z,99875.52
2019-02-14T22:26:46.784Z,99881.83
2019-02-14T22:29:18.843Z,99883.62
2019-02-14T22:31:50.851Z,99885.05
2019-02-14T22:34:22.854Z,99881.47
2019-02-14T22:36:54.893Z,99882.31
2019-02-14T22:39:26.962Z,99884.47
2019-02-14T22:41:59.168Z,99881.22
2019-02-14T22:44:31.187Z,99881.42
2019-02-14T22:47:03.198Z,99882.52
2019-02-14T22:49:35.214Z,99878.53
2019-02-14T22:52:07.202Z,99886.47
2019-02-14T22:54:41.961Z,99882.89
2019-02-14T22:57:13.965Z,99882.73
2019-02-14T22:59:45.971Z,99874.01
2019-02-14T23:02:18.489Z,99879.41
2019-02-14T23:04:50.547Z,99877.22
2019-02-14T23:07:22.536Z,99879.20
2019-02-14T23:09:54.630Z,99870.75
2019-02-14T23:12:26.598Z,99882.62
2019-02-14T23:14:58.647Z,99874.69
2019-02-14T23:17:30.629Z,99876.48
2019-02-14T23:20:02.675Z,99872.37
2019-02-14T23:22:34.676Z,99867.12
2019-02-14T23:25:06.692Z,99870.37
2019-02-14T23:27:38.661Z,99864.92
2019-02-14T23:30:12.596Z,99869.27
2019-02-14T23:32:44.602Z,99868.33
2019-02-14T23:35:16.613Z,99874.10
2019-02-14T23:37:48.583Z,99876.41
2019-02-14T23:40:20.597Z,99874.62
2019-02-14T23:42:52.612Z,99870.24
2019-02-14T23:45:24.628Z,99874.19
2019-02-14T23:47:56.651Z,99870.71
2019-02-14T23:50:28.668Z,99869.45
2019-02-14T23:53:00.781Z,99874.84
2019-02-14T23:55:32.784Z,99870.91
2019-02-14T23:58:04.848Z,99871.06
